KCIU/CIU METAR and TAF weather

Enter ICAO airport designator
Station Type Date Time Source
KCIU METAR 2020/09/30 15:56 UTC NOAA

KCIU 301556Z AUTO 27007KT 10SM SCT008 BKN014 OVC060 11/09 A2941 RMK AO2 SLP961 T01060089


Station Type Date Time Source
KCIU Decoded METAR 2020/09/30 15:56 UTC NOAA

Sault Ste Marie, Chippewa County International Airport, MI, United States (KCIU) 46-15N 084-28W
Sep 30, 2020 - 11:56 AM EDT / 2020.09.30 1556 UTC
Wind: from the W (270 degrees) at 8 MPH (7 KT):0
Visibility: 10 mile(s):0
Sky conditions: overcast
Temperature: 51.1 F (10.6 C)
Dew Point: 48.0 F (8.9 C)
Relative Humidity: 89%
Pressure (altimeter): 29.41 in. Hg (995 hPa)
ob: KCIU 301556Z AUTO 27007KT 10SM SCT008 BKN014 OVC060 11/09 A2941 RMK AO2 SLP961 T01060089
cycle: 16

Station Type Date Time Source
KCIU TAF UTC NOAA

Error!

Example: see airport list